createdAt,value
2018-12-03T00:00:31.284Z,78.80
2018-12-03T00:03:02.667Z,78.80
2018-12-03T00:05:31.063Z,78.50
2018-12-03T00:07:59.479Z,78.80
2018-12-03T00:10:27.946Z,78.80
2018-12-03T00:12:56.525Z,78.80
2018-12-03T00:15:25.080Z,79.00
2018-12-03T00:17:53.739Z,79.10
2018-12-03T00:20:22.195Z,78.90
2018-12-03T00:22:50.722Z,78.90
2018-12-03T00:25:19.228Z,78.80
2018-12-03T00:27:51.862Z,79.00
2018-12-03T00:30:21.081Z,78.70
2018-12-03T00:32:49.899Z,79.20
2018-12-03T00:35:18.333Z,79.10
2018-12-03T00:37:46.867Z,79.20
2018-12-03T00:40:15.309Z,79.20
2018-12-03T00:42:46.540Z,79.20
2018-12-03T00:45:15.051Z,80.10
2018-12-03T00:47:43.524Z,79.40
2018-12-03T00:50:11.932Z,79.10
2018-12-03T00:52:40.355Z,79.20
2018-12-03T00:55:08.855Z,79.20
2018-12-03T00:57:37.293Z,79.30
2018-12-03T01:00:08.360Z,79.10
2018-12-03T01:02:36.879Z,80.00
2018-12-03T01:05:07.196Z,79.50
2018-12-03T01:07:35.666Z,79.30
2018-12-03T01:10:04.969Z,79.20
2018-12-03T01:12:33.424Z,79.10
2018-12-03T01:15:01.942Z,79.90
2018-12-03T01:17:30.289Z,79.30
2018-12-03T01:20:04.208Z,79.20
2018-12-03T01:22:33.874Z,79.30
2018-12-03T01:25:02.223Z,79.20
2018-12-03T01:27:30.587Z,79.20
2018-12-03T01:29:58.997Z,79.20
2018-12-03T01:32:27.357Z,79.10
2018-12-03T01:34:55.862Z,79.10
2018-12-03T01:37:24.254Z,79.10
2018-12-03T01:39:52.626Z,79.20
2018-12-03T01:42:21.156Z,78.50
2018-12-03T01:44:49.599Z,79.30
2018-12-03T01:47:18.002Z,79.20
2018-12-03T01:49:46.676Z,79.20
2018-12-03T01:52:15.184Z,79.00
2018-12-03T01:54:43.639Z,78.90
2018-12-03T01:57:12.155Z,78.90
2018-12-03T01:59:40.633Z,79.00
2018-12-03T02:02:09.066Z,79.10
2018-12-03T02:04:37.440Z,79.10
2018-12-03T02:07:05.871Z,79.10
2018-12-03T02:09:34.371Z,79.20
2018-12-03T02:12:04.052Z,79.20
2018-12-03T02:14:32.597Z,79.10
2018-12-03T02:17:01.177Z,79.10
2018-12-03T02:19:31.577Z,79.00
2018-12-03T02:22:00.998Z,79.00
2018-12-03T02:24:29.376Z,79.00
2018-12-03T02:26:57.907Z,79.10
2018-12-03T02:29:26.393Z,79.20
2018-12-03T02:31:54.878Z,79.20
2018-12-03T02:34:23.334Z,79.20
2018-12-03T02:36:51.802Z,79.20
2018-12-03T02:39:20.396Z,79.30
2018-12-03T02:41:48.859Z,80.10
2018-12-03T02:44:17.455Z,79.50
2018-12-03T02:46:49.211Z,79.20
2018-12-03T02:49:23.644Z,79.20
2018-12-03T02:52:10.553Z,79.20
2018-12-03T02:54:45.264Z,79.20
2018-12-03T02:57:13.862Z,79.10
2018-12-03T02:59:42.356Z,78.90
2018-12-03T03:02:10.993Z,79.10
2018-12-03T03:04:39.446Z,79.20
2018-12-03T03:07:08.198Z,79.10
2018-12-03T03:09:36.692Z,79.10
2018-12-03T03:12:05.346Z,79.10
2018-12-03T03:14:33.895Z,79.10
2018-12-03T03:17:02.419Z,79.00
2018-12-03T03:19:30.801Z,78.90
2018-12-03T03:21:59.268Z,79.60
2018-12-03T03:24:27.842Z,78.80
2018-12-03T03:26:56.256Z,78.90
2018-12-03T03:29:24.795Z,79.00
2018-12-03T03:31:53.333Z,79.10
2018-12-03T03:34:21.820Z,79.00
2018-12-03T03:36:50.307Z,79.00
2018-12-03T03:39:18.817Z,79.00
2018-12-03T03:41:47.319Z,78.80
2018-12-03T03:44:15.785Z,78.90
2018-12-03T03:46:44.218Z,78.60
2018-12-03T03:49:12.695Z,78.50
2018-12-03T03:51:41.269Z,79.10
2018-12-03T03:54:09.763Z,78.40
2018-12-03T03:56:38.192Z,78.30
2018-12-03T03:59:06.928Z,78.20
2018-12-03T04:01:35.399Z,78.10
2018-12-03T04:04:03.926Z,78.10
2018-12-03T04:06:32.434Z,78.10
2018-12-03T04:09:00.981Z,78.10
2018-12-03T04:11:29.458Z,78.10
2018-12-03T04:13:57.918Z,78.10
2018-12-03T04:16:26.416Z,78.10
2018-12-03T04:18:54.945Z,78.20
2018-12-03T04:21:23.308Z,77.80
2018-12-03T04:23:51.770Z,78.00
2018-12-03T04:26:20.283Z,78.00
2018-12-03T04:28:48.735Z,78.10
2018-12-03T04:31:17.208Z,78.10
2018-12-03T04:33:45.659Z,78.10
2018-12-03T04:36:14.144Z,78.20
2018-12-03T04:38:42.659Z,78.20
2018-12-03T04:41:11.131Z,78.20
2018-12-03T04:43:46.235Z,78.10
2018-12-03T04:46:14.779Z,78.00
2018-12-03T04:48:43.233Z,78.10
2018-12-03T04:51:11.682Z,78.00
2018-12-03T04:53:40.151Z,78.00
2018-12-03T04:56:08.673Z,78.10
2018-12-03T04:58:37.206Z,77.90
2018-12-03T05:01:06.558Z,78.00
2018-12-03T05:03:35.132Z,78.00
2018-12-03T05:06:06.629Z,77.90
2018-12-03T05:08:35.023Z,77.80
2018-12-03T05:11:03.401Z,77.80
2018-12-03T05:13:31.795Z,77.80
2018-12-03T05:16:00.383Z,77.90
2018-12-03T05:18:28.854Z,77.70
2018-12-03T05:20:57.350Z,77.70
2018-12-03T05:23:25.781Z,77.70
2018-12-03T05:25:54.223Z,77.60
2018-12-03T05:28:22.711Z,77.60
2018-12-03T05:30:51.170Z,77.50
2018-12-03T05:33:19.647Z,77.50
2018-12-03T05:35:49.039Z,77.70
2018-12-03T05:38:17.529Z,77.70
2018-12-03T05:40:45.919Z,77.70
2018-12-03T05:43:14.394Z,77.70
2018-12-03T05:45:42.934Z,77.70
2018-12-03T05:48:11.376Z,77.70
2018-12-03T05:50:39.855Z,77.80
2018-12-03T05:53:08.340Z,77.80
2018-12-03T05:55:37.726Z,77.80
2018-12-03T05:58:06.246Z,77.80
2018-12-03T06:00:34.732Z,77.90
2018-12-03T06:03:03.166Z,77.70
2018-12-03T06:05:31.929Z,77.80
2018-12-03T06:08:00.194Z,77.70
2018-12-03T06:10:28.610Z,77.90
2018-12-03T06:12:57.195Z,77.80
2018-12-03T06:15:25.663Z,78.00
2018-12-03T06:17:54.291Z,78.00
2018-12-03T06:20:23.210Z,78.00
2018-12-03T06:22:52.981Z,77.90
2018-12-03T06:25:24.003Z,78.00
2018-12-03T06:27:52.533Z,77.90
2018-12-03T06:30:22.178Z,77.80
2018-12-03T06:32:50.665Z,78.00
2018-12-03T06:35:19.368Z,77.80
2018-12-03T06:37:48.243Z,78.10
2018-12-03T06:40:22.204Z,78.30
2018-12-03T06:42:50.663Z,78.50
2018-12-03T06:45:20.255Z,78.60
2018-12-03T06:47:53.970Z,78.60
2018-12-03T06:50:22.506Z,78.60
2018-12-03T06:52:50.942Z,78.50
2018-12-03T06:55:19.403Z,78.40
2018-12-03T06:57:47.916Z,78.40
2018-12-03T07:00:18.812Z,77.80
2018-12-03T07:02:47.426Z,77.10
2018-12-03T07:05:15.947Z,77.50
2018-12-03T07:07:45.660Z,77.50
2018-12-03T07:10:17.481Z,77.90
2018-12-03T07:12:47.412Z,78.10
2018-12-03T07:15:17.439Z,78.10
2018-12-03T07:17:45.987Z,77.90
2018-12-03T07:20:14.564Z,78.00
2018-12-03T07:22:43.057Z,77.90
2018-12-03T07:25:12.187Z,78.00
2018-12-03T07:27:40.670Z,78.20
2018-12-03T07:30:22.161Z,78.10
2018-12-03T07:32:51.204Z,78.10
2018-12-03T07:35:20.443Z,78.10
2018-12-03T07:37:49.806Z,78.10
2018-12-03T07:40:18.170Z,78.10
2018-12-03T07:42:46.665Z,78.20
2018-12-03T07:45:18.302Z,78.20
2018-12-03T07:47:46.877Z,78.10
2018-12-03T07:50:16.382Z,78.10
2018-12-03T07:52:44.866Z,78.10
2018-12-03T07:55:14.502Z,77.60
2018-12-03T07:57:44.876Z,77.80
2018-12-03T08:00:14.997Z,77.70
2018-12-03T08:02:43.485Z,77.70
2018-12-03T08:05:12.030Z,77.70
2018-12-03T08:07:41.575Z,77.50
2018-12-03T08:10:11.785Z,77.50
2018-12-03T08:12:40.471Z,77.50
2018-12-03T08:15:11.734Z,77.30
2018-12-03T08:17:40.512Z,77.20
2018-12-03T08:20:16.961Z,77.20
2018-12-03T08:22:46.587Z,77.00
2018-12-03T08:25:15.289Z,77.00
2018-12-03T08:27:43.744Z,77.20
2018-12-03T08:30:13.139Z,77.00
2018-12-03T08:32:41.606Z,77.00
2018-12-03T08:35:14.705Z,76.90
2018-12-03T08:37:43.441Z,76.90
2018-12-03T08:40:13.667Z,76.90
2018-12-03T08:42:46.502Z,76.90
2018-12-03T08:45:15.934Z,76.30
2018-12-03T08:47:44.800Z,76.30
2018-12-03T08:50:29.509Z,76.00
2018-12-03T08:53:07.520Z,76.30
2018-12-03T08:55:39.834Z,76.40
2018-12-03T09:04:18.079Z,76.40
2018-12-03T09:06:47.251Z,76.30
2018-12-03T09:09:16.839Z,76.40
2018-12-03T09:11:47.463Z,76.40
2018-12-03T09:14:16.609Z,76.70
2018-12-03T09:16:45.176Z,76.60
2018-12-03T09:19:13.866Z,76.60
2018-12-03T09:21:42.373Z,76.30
2018-12-03T09:24:10.901Z,76.60
2018-12-03T09:26:50.934Z,76.70
2018-12-03T09:31:58.297Z,76.30
2018-12-03T09:34:26.834Z,76.60
2018-12-03T09:36:55.317Z,77.00
2018-12-03T09:39:23.830Z,76.90
2018-12-03T09:41:58.262Z,76.50
2018-12-03T09:44:26.794Z,76.60
2018-12-03T09:46:55.342Z,76.20
2018-12-03T09:49:23.836Z,76.30
2018-12-03T09:51:52.324Z,75.90
2018-12-03T09:57:02.705Z,76.00
2018-12-03T09:59:34.159Z,75.70
2018-12-03T10:02:02.904Z,75.30
2018-12-03T10:04:36.611Z,75.40
2018-12-03T10:07:05.450Z,75.20
2018-12-03T10:09:37.474Z,75.50
2018-12-03T10:12:18.123Z,75.60
2018-12-03T10:14:41.011Z,75.70
2018-12-03T10:17:09.444Z,76.00
2018-12-03T10:19:37.893Z,75.90
2018-12-03T10:22:07.705Z,75.90
2018-12-03T10:24:36.215Z,76.00
2018-12-03T10:27:07.379Z,76.20
2018-12-03T10:29:35.880Z,77.20
2018-12-03T10:32:04.350Z,76.70
2018-12-03T10:34:32.828Z,76.70
2018-12-03T10:37:01.287Z,76.40
2018-12-03T10:39:32.621Z,76.60
2018-12-03T10:42:06.671Z,77.50
2018-12-03T10:44:35.163Z,76.70
2018-12-03T10:47:03.598Z,76.70
2018-12-03T10:49:32.039Z,76.60
2018-12-03T10:52:00.451Z,76.70
2018-12-03T10:54:33.524Z,76.70
2018-12-03T10:57:03.354Z,76.80
2018-12-03T10:59:32.124Z,76.90
2018-12-03T11:03:05.779Z,76.90
2018-12-03T11:05:39.680Z,76.90
2018-12-03T11:08:08.134Z,77.00
2018-12-03T11:10:38.526Z,77.10
2018-12-03T11:13:07.022Z,77.30
2018-12-03T11:15:35.547Z,77.50
2018-12-03T11:18:05.065Z,77.50
2018-12-03T11:20:33.692Z,77.60
2018-12-03T11:23:02.338Z,77.40
2018-12-03T11:25:33.010Z,77.40
2018-12-03T11:28:03.098Z,77.40
2018-12-03T11:30:31.943Z,77.50
2018-12-03T11:33:00.617Z,77.30
2018-12-03T11:35:30.657Z,77.00
2018-12-03T11:39:14.408Z,77.20
2018-12-03T11:41:43.061Z,77.10
2018-12-03T11:44:11.530Z,77.10
2018-12-03T11:46:40.141Z,77.70
2018-12-03T11:49:08.827Z,77.00
2018-12-03T11:51:37.274Z,76.90
2018-12-03T11:54:05.832Z,76.90
2018-12-03T11:56:34.314Z,76.90
2018-12-03T11:59:03.258Z,76.20
2018-12-03T12:01:31.257Z,76.40
2018-12-03T12:03:59.740Z,76.50
2018-12-03T12:06:28.279Z,76.50
2018-12-03T12:08:56.778Z,76.60
2018-12-03T12:11:25.214Z,76.30
2018-12-03T12:13:53.737Z,75.90
2018-12-03T12:16:22.228Z,75.90
2018-12-03T12:18:50.627Z,75.20
2018-12-03T12:21:19.127Z,75.30
2018-12-03T12:23:47.636Z,74.70
2018-12-03T12:26:16.138Z,75.00
2018-12-03T12:28:44.669Z,74.20
2018-12-03T12:31:13.242Z,74.30
2018-12-03T12:33:41.844Z,74.20
2018-12-03T12:36:10.411Z,74.90
2018-12-03T12:38:41.621Z,73.90
2018-12-03T12:41:10.180Z,74.00
2018-12-03T12:43:38.670Z,73.60
2018-12-03T12:46:09.588Z,73.50
2018-12-03T12:48:38.180Z,73.10
2018-12-03T12:51:07.858Z,73.20
2018-12-03T12:53:36.289Z,73.00
2018-12-03T12:56:05.998Z,72.50
2018-12-03T12:58:34.489Z,72.80
2018-12-03T13:01:04.058Z,72.60
2018-12-03T13:03:32.700Z,72.40
2018-12-03T13:06:01.119Z,72.20
2018-12-03T13:08:29.605Z,72.00
2018-12-03T13:10:58.145Z,72.20
2018-12-03T13:13:27.381Z,72.10
2018-12-03T13:15:55.979Z,72.30
2018-12-03T13:18:24.424Z,72.30
2018-12-03T13:20:52.964Z,72.20
2018-12-03T13:23:21.726Z,72.40
2018-12-03T13:25:50.115Z,72.70
2018-12-03T13:28:18.661Z,72.60
2018-12-03T13:30:47.241Z,72.50
2018-12-03T13:33:16.720Z,72.50
2018-12-03T13:38:29.661Z,72.60
2018-12-03T13:41:50.362Z,72.60
2018-12-03T13:44:18.915Z,72.50
2018-12-03T13:46:48.418Z,72.50
2018-12-03T13:49:18.501Z,73.70
2018-12-03T13:51:46.950Z,73.10
2018-12-03T13:54:19.947Z,73.40
2018-12-03T13:56:57.394Z,73.40
2018-12-03T13:59:39.230Z,73.50
2018-12-03T14:02:16.951Z,73.70
2018-12-03T14:11:08.290Z,73.80
2018-12-03T14:13:57.945Z,73.90
2018-12-03T14:16:42.426Z,74.10
2018-12-03T14:19:12.448Z,74.20
2018-12-03T14:21:45.675Z,74.30
2018-12-03T14:24:20.437Z,74.10
2018-12-03T14:26:55.452Z,74.20
2018-12-03T14:29:27.909Z,74.30
2018-12-03T14:31:57.402Z,74.40
2018-12-03T14:34:27.937Z,74.30
2018-12-03T14:37:00.261Z,74.60
2018-12-03T14:39:40.693Z,74.70
2018-12-03T14:42:09.684Z,74.50
2018-12-03T14:44:40.247Z,74.40
2018-12-03T14:47:08.896Z,74.60
2018-12-03T14:49:37.358Z,74.40
2018-12-03T14:52:06.136Z,74.40
2018-12-03T14:54:34.556Z,74.50
2018-12-03T14:57:02.983Z,74.30
2018-12-03T14:59:31.411Z,74.40
2018-12-03T15:01:59.960Z,74.60
2018-12-03T15:04:28.536Z,74.80
2018-12-03T15:06:56.994Z,75.30
2018-12-03T15:09:25.427Z,75.20
2018-12-03T15:11:53.871Z,75.30
2018-12-03T15:14:22.296Z,75.20
2018-12-03T15:16:50.773Z,75.20
2018-12-03T15:19:19.334Z,75.20
2018-12-03T15:21:48.727Z,75.10
2018-12-03T15:24:17.254Z,75.40
2018-12-03T15:26:45.719Z,75.20
2018-12-03T15:29:14.239Z,75.30
2018-12-03T15:31:42.719Z,75.50
2018-12-03T15:34:12.673Z,75.10
2018-12-03T15:36:41.143Z,75.10
2018-12-03T15:39:10.103Z,75.30
2018-12-03T15:41:38.755Z,75.10
2018-12-03T15:44:07.332Z,75.00
2018-12-03T15:46:36.040Z,75.10
2018-12-03T15:49:04.704Z,75.10
2018-12-03T15:51:33.255Z,75.10
2018-12-03T15:54:01.698Z,75.30
2018-12-03T15:56:30.247Z,75.20
2018-12-03T15:58:58.917Z,75.10
2018-12-03T16:01:27.334Z,75.10
2018-12-03T16:03:55.823Z,75.10
2018-12-03T16:06:24.408Z,75.20
2018-12-03T16:08:53.123Z,75.00
2018-12-03T16:11:21.617Z,74.80
2018-12-03T16:13:50.044Z,74.60
2018-12-03T16:16:18.612Z,74.90
2018-12-03T16:18:47.159Z,75.00
2018-12-03T16:21:15.586Z,75.40
2018-12-03T16:23:44.043Z,75.60
2018-12-03T16:26:13.527Z,75.90
2018-12-03T16:28:42.130Z,76.00
2018-12-03T16:31:10.556Z,75.80
2018-12-03T16:33:39.036Z,75.80
2018-12-03T16:36:07.528Z,75.80
2018-12-03T16:38:35.966Z,75.70
2018-12-03T16:41:05.185Z,75.80
2018-12-03T16:43:33.667Z,76.50
2018-12-03T16:46:02.296Z,75.50
2018-12-03T16:48:30.858Z,75.20
2018-12-03T16:50:59.292Z,75.20
2018-12-03T16:53:27.669Z,75.30
2018-12-03T16:55:56.048Z,75.40
2018-12-03T16:58:24.545Z,75.80
2018-12-03T17:00:53.045Z,75.90
2018-12-03T17:03:22.326Z,75.80
2018-12-03T17:05:51.028Z,75.80
2018-12-03T17:08:19.501Z,75.60
2018-12-03T17:10:47.946Z,75.70
2018-12-03T17:13:16.367Z,75.80
2018-12-03T17:15:44.820Z,75.60
2018-12-03T17:18:13.251Z,75.80
2018-12-03T17:20:46.366Z,75.70
2018-12-03T17:23:20.134Z,75.90
2018-12-03T17:25:48.679Z,75.80
2018-12-03T17:28:17.220Z,75.80
2018-12-03T17:31:00.140Z,75.90
2018-12-03T17:33:34.470Z,75.90
2018-12-03T17:36:31.451Z,75.70
2018-12-03T17:42:28.323Z,75.30
2018-12-03T17:44:56.804Z,76.30
2018-12-03T17:47:26.387Z,75.70
2018-12-03T17:49:54.912Z,76.70
2018-12-03T17:52:23.436Z,75.90
2018-12-03T17:54:51.888Z,75.80
2018-12-03T17:57:25.240Z,76.10
2018-12-03T17:59:53.893Z,76.20
2018-12-03T18:02:22.641Z,76.70
2018-12-03T18:04:51.231Z,76.60
2018-12-03T18:07:25.161Z,76.80
2018-12-03T18:09:54.153Z,77.00
2018-12-03T18:12:22.733Z,76.80
2018-12-03T18:14:51.190Z,77.10
2018-12-03T18:17:19.657Z,76.80
2018-12-03T18:19:48.319Z,76.80
2018-12-03T18:22:16.756Z,77.10
2018-12-03T18:24:45.202Z,77.20
2018-12-03T18:27:13.567Z,77.20
2018-12-03T18:29:41.969Z,77.00
2018-12-03T18:32:10.471Z,76.90
2018-12-03T18:34:38.947Z,76.60
2018-12-03T18:37:07.444Z,76.10
2018-12-03T18:39:35.930Z,76.50
2018-12-03T18:42:04.605Z,76.30
2018-12-03T18:44:34.094Z,76.70
2018-12-03T18:47:02.583Z,77.00
2018-12-03T18:49:33.839Z,76.90
2018-12-03T18:52:02.336Z,76.90
2018-12-03T18:54:31.813Z,77.00
2018-12-03T18:57:00.333Z,77.30
2018-12-03T18:59:28.751Z,77.70
2018-12-03T19:01:57.119Z,77.50
2018-12-03T19:04:25.495Z,77.20
2018-12-03T19:06:53.914Z,77.50
2018-12-03T19:09:22.404Z,77.70
2018-12-03T19:11:51.191Z,77.70
2018-12-03T19:14:19.754Z,77.70
2018-12-03T19:16:48.129Z,77.50
2018-12-03T19:19:16.506Z,77.60
2018-12-03T19:21:45.898Z,77.60
2018-12-03T19:24:14.252Z,78.00
2018-12-03T19:26:42.643Z,77.70
2018-12-03T19:29:11.064Z,77.60
2018-12-03T19:31:39.487Z,77.50
2018-12-03T19:34:07.940Z,77.90
2018-12-03T19:36:36.425Z,77.90
2018-12-03T19:39:06.682Z,77.90
2018-12-03T19:41:35.143Z,78.00
2018-12-03T19:44:03.573Z,78.20
2018-12-03T19:46:32.047Z,78.40
2018-12-03T19:49:03.786Z,79.00
2018-12-03T19:51:32.329Z,79.10
2018-12-03T19:54:01.032Z,79.20
2018-12-03T19:56:29.597Z,79.10
2018-12-03T19:58:58.050Z,78.80
2018-12-03T20:01:27.465Z,78.80
2018-12-03T20:03:55.948Z,78.50
2018-12-03T20:06:24.413Z,78.30
2018-12-03T20:08:52.830Z,78.60
2018-12-03T20:11:21.309Z,78.60
2018-12-03T20:13:50.275Z,78.60
2018-12-03T20:16:31.866Z,78.50
2018-12-03T20:19:06.688Z,78.50
2018-12-03T20:21:41.578Z,78.50
2018-12-03T20:24:31.125Z,78.60
2018-12-03T20:27:10.854Z,78.50
2018-12-03T20:29:51.486Z,78.40
2018-12-03T20:32:40.587Z,78.40
2018-12-03T20:35:16.769Z,78.30
2018-12-03T20:38:05.651Z,78.30
2018-12-03T20:40:44.509Z,78.10
2018-12-03T20:43:19.315Z,78.10
2018-12-03T20:45:55.940Z,78.10
2018-12-03T20:48:34.916Z,78.00
2018-12-03T20:51:12.857Z,77.80
2018-12-03T20:53:49.714Z,78.00
2018-12-03T20:56:18.443Z,78.00
2018-12-03T20:58:48.429Z,78.00
2018-12-03T21:01:22.919Z,77.90
2018-12-03T21:03:54.663Z,77.90
2018-12-03T21:06:30.732Z,78.10
2018-12-03T21:09:05.883Z,77.90
2018-12-03T21:11:36.623Z,77.90
2018-12-03T21:14:08.342Z,77.70
2018-12-03T21:16:38.445Z,77.80
2018-12-03T21:19:12.245Z,77.60
2018-12-03T21:21:49.974Z,77.70
2018-12-03T21:24:28.382Z,77.70
2018-12-03T21:26:57.866Z,77.70
2018-12-03T21:29:26.378Z,77.60
2018-12-03T21:31:55.888Z,77.60
2018-12-03T21:34:24.377Z,78.10
2018-12-03T21:36:55.343Z,77.40
2018-12-03T21:39:48.035Z,77.40
2018-12-03T21:42:24.039Z,77.70
2018-12-03T21:44:54.388Z,77.60
2018-12-03T21:47:26.768Z,77.60
2018-12-03T21:50:07.466Z,77.50
2018-12-03T21:55:34.973Z,77.50
2018-12-03T21:58:05.435Z,77.20
2018-12-03T22:03:38.698Z,77.10
2018-12-03T22:06:13.699Z,77.10
2018-12-03T22:08:45.622Z,77.00
2018-12-03T22:11:15.241Z,76.90
2018-12-03T22:13:45.678Z,76.90
2018-12-03T22:19:08.229Z,76.50
2018-12-03T22:21:39.153Z,76.60
2018-12-03T22:24:08.877Z,76.60
2018-12-03T22:26:38.366Z,76.80
2018-12-03T22:29:06.735Z,76.70
2018-12-03T22:31:38.983Z,76.80
2018-12-03T22:34:10.854Z,76.60
2018-12-03T22:36:51.461Z,76.60
2018-12-03T22:39:21.932Z,76.50
2018-12-03T22:41:54.462Z,76.40
2018-12-03T22:44:29.353Z,76.20
2018-12-03T22:47:01.950Z,76.10
2018-12-03T22:49:43.736Z,76.10
2018-12-03T22:52:14.223Z,76.10
2018-12-03T22:54:49.198Z,76.00
2018-12-03T22:57:19.695Z,76.00
2018-12-03T23:00:04.483Z,75.90
2018-12-03T23:02:39.410Z,76.00
2018-12-03T23:05:17.459Z,76.10
2018-12-03T23:07:49.325Z,76.10
2018-12-03T23:10:21.835Z,76.10
2018-12-03T23:12:54.277Z,76.10
2018-12-03T23:15:38.058Z,76.10
2018-12-03T23:18:07.186Z,75.90
2018-12-03T23:20:41.647Z,75.80
2018-12-03T23:23:10.133Z,76.00
2018-12-03T23:25:39.545Z,76.20
2018-12-03T23:28:20.065Z,76.30
2018-12-03T23:31:00.600Z,76.10
2018-12-03T23:33:38.962Z,76.40
2018-12-03T23:36:12.933Z,76.30
2018-12-03T23:38:51.981Z,76.60
2018-12-03T23:41:20.757Z,76.60
2018-12-03T23:43:49.954Z,76.50
2018-12-03T23:46:20.545Z,76.70
2018-12-03T23:48:52.443Z,76.50
2018-12-03T23:51:36.036Z,76.50
2018-12-03T23:54:08.002Z,76.80
2018-12-03T23:59:37.913Z,76.50
